Terminal Aerodrome Forecast
Issued by NWS

Home | Current Version | Previous Version | Text Only | Print | Product List | Glossary On
Versions: 1 2 3 4 5 6 7 8 9 10 11 12 13 14 15 16 17
157
FTUS43 KJKL 212320
TAFSME
TAF
KSME 212320Z 2200/2224 17002KT P6SM BKN070
     FM220900 00000KT P6SM VCSH BKN035
     FM221200 11003KT 5SM -SHRA OVC025
     FM221400 13005KT 3SM -SHRA OVC015
     FM221700 19007KT P6SM VCTS OVC030CB=

USA.gov is the U.S. government's official web portal to all federal, state and local government web resources and services.